sensor_id;sensor_type;location;lat;lon;timestamp;P1;durP1;ratioP1;P2;durP2;ratioP2
22186;SDS011;11259;52.146;12.844;2023-06-10T00:00:34;2.08;;;1.67;;
22186;SDS011;11259;52.146;12.844;2023-06-10T00:02:59;1.33;;;1.20;;
22186;SDS011;11259;52.146;12.844;2023-06-10T00:05:25;1.95;;;1.80;;
22186;SDS011;11259;52.146;12.844;2023-06-10T00:07:50;1.98;;;1.70;;
22186;SDS011;11259;52.146;12.844;2023-06-10T00:10:15;2.70;;;1.92;;
22186;SDS011;11259;52.146;12.844;2023-06-10T00:12:41;1.58;;;1.30;;
22186;SDS011;11259;52.146;12.844;2023-06-10T00:15:08;2.28;;;1.52;;
22186;SDS011;11259;52.146;12.844;2023-06-10T00:17:34;12.52;;;1.48;;
22186;SDS011;11259;52.146;12.844;2023-06-10T00:19:59;2.92;;;1.80;;
22186;SDS011;11259;52.146;12.844;2023-06-10T00:22:24;4.22;;;1.60;;
22186;SDS011;11259;52.146;12.844;2023-06-10T00:24:50;2.03;;;1.55;;
22186;SDS011;11259;52.146;12.844;2023-06-10T00:27:15;3.25;;;1.48;;
22186;SDS011;11259;52.146;12.844;2023-06-10T00:29:40;2.42;;;1.63;;
22186;SDS011;11259;52.146;12.844;2023-06-10T00:32:07;1.50;;;1.40;;
22186;SDS011;11259;52.146;12.844;2023-06-10T00:34:33;1.75;;;1.65;;
22186;SDS011;11259;52.146;12.844;2023-06-10T00:36:58;2.08;;;1.60;;
22186;SDS011;11259;52.146;12.844;2023-06-10T00:39:23;1.70;;;1.27;;
22186;SDS011;11259;52.146;12.844;2023-06-10T00:41:49;2.22;;;1.50;;
22186;SDS011;11259;52.146;12.844;2023-06-10T00:44:15;1.20;;;1.10;;
22186;SDS011;11259;52.146;12.844;2023-06-10T00:46:40;2.03;;;1.83;;
22186;SDS011;11259;52.146;12.844;2023-06-10T00:49:07;1.75;;;1.58;;
22186;SDS011;11259;52.146;12.844;2023-06-10T00:51:32;2.90;;;1.75;;
22186;SDS011;11259;52.146;12.844;2023-06-10T00:53:57;1.58;;;1.02;;
22186;SDS011;11259;52.146;12.844;2023-06-10T00:56:23;2.67;;;2.17;;
22186;SDS011;11259;52.146;12.844;2023-06-10T00:58:48;1.95;;;1.65;;
22186;SDS011;11259;52.146;12.844;2023-06-10T01:01:13;1.80;;;1.25;;
22186;SDS011;11259;52.146;12.844;2023-06-10T01:03:39;2.15;;;1.67;;
22186;SDS011;11259;52.146;12.844;2023-06-10T01:06:09;2.55;;;1.70;;
22186;SDS011;11259;52.146;12.844;2023-06-10T01:08:44;2.08;;;1.75;;
22186;SDS011;11259;52.146;12.844;2023-06-10T01:11:13;2.47;;;1.90;;
22186;SDS011;11259;52.146;12.844;2023-06-10T01:13:43;1.42;;;1.33;;
22186;SDS011;11259;52.146;12.844;2023-06-10T01:16:09;2.20;;;1.75;;
22186;SDS011;11259;52.146;12.844;2023-06-10T01:18:34;2.83;;;1.98;;
22186;SDS011;11259;52.146;12.844;2023-06-10T01:21:00;1.98;;;1.77;;
22186;SDS011;11259;52.146;12.844;2023-06-10T01:23:26;1.90;;;1.52;;
22186;SDS011;11259;52.146;12.844;2023-06-10T01:25:52;2.33;;;1.70;;
22186;SDS011;11259;52.146;12.844;2023-06-10T01:28:21;1.67;;;1.58;;
22186;SDS011;11259;52.146;12.844;2023-06-10T01:30:50;2.35;;;1.95;;
22186;SDS011;11259;52.146;12.844;2023-06-10T01:33:21;2.88;;;1.65;;
22186;SDS011;11259;52.146;12.844;2023-06-10T01:35:51;2.13;;;1.50;;
22186;SDS011;11259;52.146;12.844;2023-06-10T01:38:18;1.80;;;1.63;;
22186;SDS011;11259;52.146;12.844;2023-06-10T01:40:45;1.67;;;1.58;;
22186;SDS011;11259;52.146;12.844;2023-06-10T01:43:11;2.60;;;1.67;;
22186;SDS011;11259;52.146;12.844;2023-06-10T01:45:37;3.85;;;1.80;;
22186;SDS011;11259;52.146;12.844;2023-06-10T01:48:02;1.90;;;1.80;;
22186;SDS011;11259;52.146;12.844;2023-06-10T01:50:27;2.00;;;1.58;;
22186;SDS011;11259;52.146;12.844;2023-06-10T01:52:53;1.70;;;1.60;;
22186;SDS011;11259;52.146;12.844;2023-06-10T01:55:18;1.80;;;1.63;;
22186;SDS011;11259;52.146;12.844;2023-06-10T01:57:45;2.00;;;1.85;;
22186;SDS011;11259;52.146;12.844;2023-06-10T02:00:11;1.88;;;1.40;;
22186;SDS011;11259;52.146;12.844;2023-06-10T02:02:37;2.05;;;1.52;;
22186;SDS011;11259;52.146;12.844;2023-06-10T02:05:02;2.42;;;1.88;;
22186;SDS011;11259;52.146;12.844;2023-06-10T02:07:28;2.53;;;1.90;;
22186;SDS011;11259;52.146;12.844;2023-06-10T02:09:53;1.42;;;1.33;;
22186;SDS011;11259;52.146;12.844;2023-06-10T02:12:18;2.80;;;1.73;;
22186;SDS011;11259;52.146;12.844;2023-06-10T02:14:45;1.50;;;1.40;;
22186;SDS011;11259;52.146;12.844;2023-06-10T02:17:10;1.52;;;1.42;;
22186;SDS011;11259;52.146;12.844;2023-06-10T02:19:36;1.65;;;1.50;;
22186;SDS011;11259;52.146;12.844;2023-06-10T02:22:01;6.35;;;1.98;;
22186;SDS011;11259;52.146;12.844;2023-06-10T02:24:26;1.65;;;1.55;;
22186;SDS011;11259;52.146;12.844;2023-06-10T02:26:51;6.38;;;2.08;;
22186;SDS011;11259;52.146;12.844;2023-06-10T02:29:17;4.78;;;2.25;;
22186;SDS011;11259;52.146;12.844;2023-06-10T02:31:43;1.65;;;1.42;;
22186;SDS011;11259;52.146;12.844;2023-06-10T02:34:09;3.25;;;1.98;;
22186;SDS011;11259;52.146;12.844;2023-06-10T02:36:34;2.97;;;1.80;;
22186;SDS011;11259;52.146;12.844;2023-06-10T02:38:59;1.80;;;1.27;;
22186;SDS011;11259;52.146;12.844;2023-06-10T02:41:25;4.72;;;1.40;;
22186;SDS011;11259;52.146;12.844;2023-06-10T02:43:50;4.38;;;2.10;;
22186;SDS011;11259;52.146;12.844;2023-06-10T02:46:15;2.05;;;1.83;;
22186;SDS011;11259;52.146;12.844;2023-06-10T02:48:42;3.58;;;1.52;;
22186;SDS011;11259;52.146;12.844;2023-06-10T02:51:08;1.90;;;1.50;;
22186;SDS011;11259;52.146;12.844;2023-06-10T02:53:33;1.98;;;1.77;;
22186;SDS011;11259;52.146;12.844;2023-06-10T02:55:59;3.60;;;1.75;;
22186;SDS011;11259;52.146;12.844;2023-06-10T02:58:24;2.97;;;1.60;;
22186;SDS011;11259;52.146;12.844;2023-06-10T03:00:49;2.38;;;1.50;;
22186;SDS011;11259;52.146;12.844;2023-06-10T03:03:16;2.38;;;1.85;;
22186;SDS011;11259;52.146;12.844;2023-06-10T03:05:42;4.50;;;1.88;;
22186;SDS011;11259;52.146;12.844;2023-06-10T03:08:08;2.83;;;1.95;;
22186;SDS011;11259;52.146;12.844;2023-06-10T03:10:33;2.17;;;1.73;;
22186;SDS011;11259;52.146;12.844;2023-06-10T03:12:58;1.77;;;1.50;;
22186;SDS011;11259;52.146;12.844;2023-06-10T03:15:24;2.05;;;1.67;;
22186;SDS011;11259;52.146;12.844;2023-06-10T03:17:49;2.65;;;1.77;;
22186;SDS011;11259;52.146;12.844;2023-06-10T03:20:14;2.38;;;1.90;;
22186;SDS011;11259;52.146;12.844;2023-06-10T03:22:41;2.05;;;1.70;;
22186;SDS011;11259;52.146;12.844;2023-06-10T03:25:07;1.90;;;1.52;;
22186;SDS011;11259;52.146;12.844;2023-06-10T03:27:33;3.00;;;2.13;;
22186;SDS011;11259;52.146;12.844;2023-06-10T03:29:58;2.00;;;1.85;;
22186;SDS011;11259;52.146;12.844;2023-06-10T03:32:23;2.92;;;1.95;;
22186;SDS011;11259;52.146;12.844;2023-06-10T03:34:49;3.67;;;1.98;;
22186;SDS011;11259;52.146;12.844;2023-06-10T03:37:14;1.67;;;1.50;;
22186;SDS011;11259;52.146;12.844;2023-06-10T03:39:41;2.72;;;1.77;;
22186;SDS011;11259;52.146;12.844;2023-06-10T03:42:06;2.15;;;1.95;;
22186;SDS011;11259;52.146;12.844;2023-06-10T03:44:31;5.13;;;1.77;;
22186;SDS011;11259;52.146;12.844;2023-06-10T03:46:57;2.38;;;1.83;;
22186;SDS011;11259;52.146;12.844;2023-06-10T03:49:22;3.17;;;1.80;;
22186;SDS011;11259;52.146;12.844;2023-06-10T03:51:47;2.55;;;1.80;;
22186;SDS011;11259;52.146;12.844;2023-06-10T03:54:13;1.75;;;1.65;;
22186;SDS011;11259;52.146;12.844;2023-06-10T03:56:40;2.30;;;1.52;;
22186;SDS011;11259;52.146;12.844;2023-06-10T03:59:05;2.35;;;1.75;;
22186;SDS011;11259;52.146;12.844;2023-06-10T04:01:30;2.15;;;1.67;;
22186;SDS011;11259;52.146;12.844;2023-06-10T04:03:56;2.65;;;1.85;;
22186;SDS011;11259;52.146;12.844;2023-06-10T04:06:21;2.83;;;2.03;;
22186;SDS011;11259;52.146;12.844;2023-06-10T04:08:46;3.55;;;1.92;;
22186;SDS011;11259;52.146;12.844;2023-06-10T04:11:12;1.92;;;1.50;;
22186;SDS011;11259;52.146;12.844;2023-06-10T04:13:38;2.95;;;1.73;;
22186;SDS011;11259;52.146;12.844;2023-06-10T04:16:04;3.78;;;2.50;;
22186;SDS011;11259;52.146;12.844;2023-06-10T04:18:30;3.42;;;2.47;;
22186;SDS011;11259;52.146;12.844;2023-06-10T04:20:55;2.20;;;1.50;;
22186;SDS011;11259;52.146;12.844;2023-06-10T04:23:20;1.98;;;1.67;;
22186;SDS011;11259;52.146;12.844;2023-06-10T04:25:46;1.48;;;1.30;;
22186;SDS011;11259;52.146;12.844;2023-06-10T04:28:11;3.40;;;1.73;;
22186;SDS011;11259;52.146;12.844;2023-06-10T04:30:38;4.50;;;1.88;;
22186;SDS011;11259;52.146;12.844;2023-06-10T04:33:03;7.40;;;2.72;;
22186;SDS011;11259;52.146;12.844;2023-06-10T04:35:28;2.00;;;1.55;;
22186;SDS011;11259;52.146;12.844;2023-06-10T04:37:53;1.48;;;1.20;;
22186;SDS011;11259;52.146;12.844;2023-06-10T04:40:19;2.55;;;1.52;;
22186;SDS011;11259;52.146;12.844;2023-06-10T04:42:44;1.67;;;1.30;;
22186;SDS011;11259;52.146;12.844;2023-06-10T04:45:10;2.50;;;2.25;;
22186;SDS011;11259;52.146;12.844;2023-06-10T04:47:36;1.95;;;1.65;;
22186;SDS011;11259;52.146;12.844;2023-06-10T04:50:02;2.90;;;1.98;;
22186;SDS011;11259;52.146;12.844;2023-06-10T04:52:28;2.17;;;1.75;;
22186;SDS011;11259;52.146;12.844;2023-06-10T04:54:53;3.40;;;1.35;;
22186;SDS011;11259;52.146;12.844;2023-06-10T04:57:19;1.92;;;1.75;;
22186;SDS011;11259;52.146;12.844;2023-06-10T04:59:44;3.28;;;2.08;;
22186;SDS011;11259;52.146;12.844;2023-06-10T05:05:04;2.05;;;1.45;;
22186;SDS011;11259;52.146;12.844;2023-06-10T05:07:30;2.08;;;1.63;;
22186;SDS011;11259;52.146;12.844;2023-06-10T05:09:55;2.60;;;1.52;;
22186;SDS011;11259;52.146;12.844;2023-06-10T05:12:20;2.47;;;2.15;;
22186;SDS011;11259;52.146;12.844;2023-06-10T05:14:46;3.75;;;2.05;;
22186;SDS011;11259;52.146;12.844;2023-06-10T05:17:11;1.88;;;1.63;;
22186;SDS011;11259;52.146;12.844;2023-06-10T05:19:38;8.90;;;2.30;;
22186;SDS011;11259;52.146;12.844;2023-06-10T05:22:03;4.15;;;1.88;;
22186;SDS011;11259;52.146;12.844;2023-06-10T05:24:29;2.28;;;1.60;;
22186;SDS011;11259;52.146;12.844;2023-06-10T05:26:54;2.05;;;1.70;;
22186;SDS011;11259;52.146;12.844;2023-06-10T05:29:19;1.92;;;1.55;;
22186;SDS011;11259;52.146;12.844;2023-06-10T05:31:45;2.20;;;2.00;;
22186;SDS011;11259;52.146;12.844;2023-06-10T05:34:10;2.22;;;1.63;;
22186;SDS011;11259;52.146;12.844;2023-06-10T05:36:37;2.90;;;1.92;;
22186;SDS011;11259;52.146;12.844;2023-06-10T05:39:02;2.60;;;1.73;;
22186;SDS011;11259;52.146;12.844;2023-06-10T05:41:27;3.83;;;2.10;;
22186;SDS011;11259;52.146;12.844;2023-06-10T05:43:53;2.20;;;1.60;;
22186;SDS011;11259;52.146;12.844;2023-06-10T05:46:18;2.28;;;1.77;;
22186;SDS011;11259;52.146;12.844;2023-06-10T05:48:44;3.13;;;1.33;;
22186;SDS011;11259;52.146;12.844;2023-06-10T05:51:09;1.50;;;1.25;;
22186;SDS011;11259;52.146;12.844;2023-06-10T05:53:36;3.33;;;1.80;;
22186;SDS011;11259;52.146;12.844;2023-06-10T05:56:01;1.85;;;1.45;;
22186;SDS011;11259;52.146;12.844;2023-06-10T05:58:27;2.35;;;1.92;;
22186;SDS011;11259;52.146;12.844;2023-06-10T06:00:52;1.77;;;1.30;;
22186;SDS011;11259;52.146;12.844;2023-06-10T06:03:17;3.22;;;2.20;;
22186;SDS011;11259;52.146;12.844;2023-06-10T06:05:43;2.03;;;1.63;;
22186;SDS011;11259;52.146;12.844;2023-06-10T06:08:09;2.72;;;1.67;;
22186;SDS011;11259;52.146;12.844;2023-06-10T06:10:36;3.17;;;1.75;;
22186;SDS011;11259;52.146;12.844;2023-06-10T06:13:01;2.10;;;1.90;;
22186;SDS011;11259;52.146;12.844;2023-06-10T06:15:27;4.53;;;2.20;;
22186;SDS011;11259;52.146;12.844;2023-06-10T06:17:52;1.98;;;1.75;;
22186;SDS011;11259;52.146;12.844;2023-06-10T06:20:17;3.47;;;1.83;;
22186;SDS011;11259;52.146;12.844;2023-06-10T06:22:43;2.03;;;1.83;;
22186;SDS011;11259;52.146;12.844;2023-06-10T06:25:08;2.28;;;1.80;;
22186;SDS011;11259;52.146;12.844;2023-06-10T06:27:35;2.15;;;1.90;;
22186;SDS011;11259;52.146;12.844;2023-06-10T06:30:00;4.82;;;2.35;;
22186;SDS011;11259;52.146;12.844;2023-06-10T06:32:25;2.03;;;1.65;;
22186;SDS011;11259;52.146;12.844;2023-06-10T06:34:51;2.67;;;2.03;;
22186;SDS011;11259;52.146;12.844;2023-06-10T06:37:16;2.83;;;2.10;;
22186;SDS011;11259;52.146;12.844;2023-06-10T06:39:41;2.05;;;1.75;;
22186;SDS011;11259;52.146;12.844;2023-06-10T06:42:07;1.70;;;1.60;;
22186;SDS011;11259;52.146;12.844;2023-06-10T06:44:34;2.22;;;2.03;;
22186;SDS011;11259;52.146;12.844;2023-06-10T06:46:59;3.28;;;2.17;;
22186;SDS011;11259;52.146;12.844;2023-06-10T06:49:24;3.40;;;2.53;;
22186;SDS011;11259;52.146;12.844;2023-06-10T06:51:50;3.22;;;2.40;;
22186;SDS011;11259;52.146;12.844;2023-06-10T06:54:15;3.33;;;2.45;;
22186;SDS011;11259;52.146;12.844;2023-06-10T06:56:40;2.28;;;1.92;;
22186;SDS011;11259;52.146;12.844;2023-06-10T06:59:05;3.03;;;2.08;;
22186;SDS011;11259;52.146;12.844;2023-06-10T07:01:33;3.08;;;2.47;;
22186;SDS011;11259;52.146;12.844;2023-06-10T07:03:58;2.33;;;1.92;;
22186;SDS011;11259;52.146;12.844;2023-06-10T07:06:23;4.80;;;2.88;;
22186;SDS011;11259;52.146;12.844;2023-06-10T07:08:49;3.60;;;2.58;;
22186;SDS011;11259;52.146;12.844;2023-06-10T07:11:14;4.75;;;2.72;;
22186;SDS011;11259;52.146;12.844;2023-06-10T07:13:41;4.20;;;2.85;;
22186;SDS011;11259;52.146;12.844;2023-06-10T07:16:06;3.20;;;2.90;;
22186;SDS011;11259;52.146;12.844;2023-06-10T07:18:33;2.78;;;2.40;;
22186;SDS011;11259;52.146;12.844;2023-06-10T07:20:58;3.90;;;2.78;;
22186;SDS011;11259;52.146;12.844;2023-06-10T07:23:23;3.83;;;2.40;;
22186;SDS011;11259;52.146;12.844;2023-06-10T07:25:49;3.72;;;2.53;;
22186;SDS011;11259;52.146;12.844;2023-06-10T07:28:14;3.58;;;2.72;;
22186;SDS011;11259;52.146;12.844;2023-06-10T07:30:40;3.03;;;2.58;;
22186;SDS011;11259;52.146;12.844;2023-06-10T07:33:05;5.70;;;2.78;;
22186;SDS011;11259;52.146;12.844;2023-06-10T07:35:32;2.42;;;2.22;;
22186;SDS011;11259;52.146;12.844;2023-06-10T07:37:57;2.92;;;2.35;;
22186;SDS011;11259;52.146;12.844;2023-06-10T07:40:23;3.28;;;2.78;;
22186;SDS011;11259;52.146;12.844;2023-06-10T07:42:49;3.60;;;2.60;;
22186;SDS011;11259;52.146;12.844;2023-06-10T07:45:14;3.75;;;2.60;;
22186;SDS011;11259;52.146;12.844;2023-06-10T07:47:39;3.05;;;2.70;;
22186;SDS011;11259;52.146;12.844;2023-06-10T07:50:05;2.60;;;2.38;;
22186;SDS011;11259;52.146;12.844;2023-06-10T07:52:32;3.17;;;2.33;;
22186;SDS011;11259;52.146;12.844;2023-06-10T07:54:57;3.45;;;2.55;;
22186;SDS011;11259;52.146;12.844;2023-06-10T07:57:22;4.15;;;3.22;;
22186;SDS011;11259;52.146;12.844;2023-06-10T07:59:48;3.75;;;2.55;;
22186;SDS011;11259;52.146;12.844;2023-06-10T08:02:13;3.42;;;3.00;;
22186;SDS011;11259;52.146;12.844;2023-06-10T08:04:38;3.72;;;2.38;;
22186;SDS011;11259;52.146;12.844;2023-06-10T08:07:04;2.90;;;2.60;;
22186;SDS011;11259;52.146;12.844;2023-06-10T08:09:31;3.95;;;2.50;;
22186;SDS011;11259;52.146;12.844;2023-06-10T08:11:56;3.55;;;2.38;;
22186;SDS011;11259;52.146;12.844;2023-06-10T08:14:21;4.47;;;3.13;;
22186;SDS011;11259;52.146;12.844;2023-06-10T08:16:47;5.20;;;2.83;;
22186;SDS011;11259;52.146;12.844;2023-06-10T08:19:12;3.13;;;2.83;;
22186;SDS011;11259;52.146;12.844;2023-06-10T08:21:38;2.90;;;2.63;;
22186;SDS011;11259;52.146;12.844;2023-06-10T08:24:03;2.80;;;2.30;;
22186;SDS011;11259;52.146;12.844;2023-06-10T08:26:30;4.38;;;3.47;;
22186;SDS011;11259;52.146;12.844;2023-06-10T08:28:55;3.20;;;2.63;;
22186;SDS011;11259;52.146;12.844;2023-06-10T08:31:21;4.22;;;2.97;;
22186;SDS011;11259;52.146;12.844;2023-06-10T08:33:46;3.53;;;2.08;;
22186;SDS011;11259;52.146;12.844;2023-06-10T08:36:11;2.83;;;2.50;;
22186;SDS011;11259;52.146;12.844;2023-06-10T08:38:37;2.90;;;2.55;;
22186;SDS011;11259;52.146;12.844;2023-06-10T08:41:04;3.65;;;2.95;;
22186;SDS011;11259;52.146;12.844;2023-06-10T08:43:32;3.08;;;2.60;;
22186;SDS011;11259;52.146;12.844;2023-06-10T08:45:59;3.80;;;2.83;;
22186;SDS011;11259;52.146;12.844;2023-06-10T08:48:26;5.03;;;2.92;;
22186;SDS011;11259;52.146;12.844;2023-06-10T08:50:52;3.22;;;2.65;;
22186;SDS011;11259;52.146;12.844;2023-06-10T08:53:18;4.15;;;2.90;;
22186;SDS011;11259;52.146;12.844;2023-06-10T08:55:43;2.55;;;2.35;;
22186;SDS011;11259;52.146;12.844;2023-06-10T08:58:11;3.13;;;2.75;;
22186;SDS011;11259;52.146;12.844;2023-06-10T09:00:39;3.65;;;2.65;;
22186;SDS011;11259;52.146;12.844;2023-06-10T09:03:04;2.95;;;2.50;;
22186;SDS011;11259;52.146;12.844;2023-06-10T09:05:30;4.95;;;2.65;;
22186;SDS011;11259;52.146;12.844;2023-06-10T09:07:58;3.25;;;2.25;;
22186;SDS011;11259;52.146;12.844;2023-06-10T09:10:24;3.13;;;2.83;;
22186;SDS011;11259;52.146;12.844;2023-06-10T09:12:49;2.45;;;1.95;;
22186;SDS011;11259;52.146;12.844;2023-06-10T09:15:15;2.60;;;2.40;;
22186;SDS011;11259;52.146;12.844;2023-06-10T09:17:41;3.50;;;2.45;;
22186;SDS011;11259;52.146;12.844;2023-06-10T09:20:07;3.22;;;2.30;;
22186;SDS011;11259;52.146;12.844;2023-06-10T09:22:33;2.75;;;2.30;;
22186;SDS011;11259;52.146;12.844;2023-06-10T09:25:02;3.30;;;2.38;;
22186;SDS011;11259;52.146;12.844;2023-06-10T09:27:29;3.10;;;2.80;;
22186;SDS011;11259;52.146;12.844;2023-06-10T09:29:55;4.38;;;2.92;;
22186;SDS011;11259;52.146;12.844;2023-06-10T09:32:20;2.90;;;2.60;;
22186;SDS011;11259;52.146;12.844;2023-06-10T09:34:47;3.08;;;2.40;;
22186;SDS011;11259;52.146;12.844;2023-06-10T09:37:13;3.63;;;2.70;;
22186;SDS011;11259;52.146;12.844;2023-06-10T09:39:45;5.40;;;2.53;;
22186;SDS011;11259;52.146;12.844;2023-06-10T09:42:16;3.65;;;2.78;;
22186;SDS011;11259;52.146;12.844;2023-06-10T09:44:41;5.25;;;2.72;;
22186;SDS011;11259;52.146;12.844;2023-06-10T09:47:07;5.80;;;3.28;;
22186;SDS011;11259;52.146;12.844;2023-06-10T09:49:32;3.10;;;2.80;;
22186;SDS011;11259;52.146;12.844;2023-06-10T09:51:59;3.17;;;2.88;;
22186;SDS011;11259;52.146;12.844;2023-06-10T09:54:24;4.47;;;2.75;;
22186;SDS011;11259;52.146;12.844;2023-06-10T09:56:56;3.17;;;2.88;;
22186;SDS011;11259;52.146;12.844;2023-06-10T09:59:28;2.97;;;2.65;;
22186;SDS011;11259;52.146;12.844;2023-06-10T10:01:54;3.33;;;2.55;;
22186;SDS011;11259;52.146;12.844;2023-06-10T10:04:22;3.53;;;2.83;;
22186;SDS011;11259;52.146;12.844;2023-06-10T10:06:48;5.15;;;2.92;;
22186;SDS011;11259;52.146;12.844;2023-06-10T10:09:15;3.42;;;2.47;;
22186;SDS011;11259;52.146;12.844;2023-06-10T10:11:40;3.33;;;2.78;;
22186;SDS011;11259;52.146;12.844;2023-06-10T10:14:05;3.58;;;3.05;;
22186;SDS011;11259;52.146;12.844;2023-06-10T10:16:33;4.80;;;2.40;;
22186;SDS011;11259;52.146;12.844;2023-06-10T10:19:01;2.80;;;2.38;;
22186;SDS011;11259;52.146;12.844;2023-06-10T10:21:32;2.80;;;2.22;;
22186;SDS011;11259;52.146;12.844;2023-06-10T10:24:03;3.08;;;2.75;;
22186;SDS011;11259;52.146;12.844;2023-06-10T10:26:33;3.45;;;2.55;;
22186;SDS011;11259;52.146;12.844;2023-06-10T10:29:04;3.40;;;3.05;;
22186;SDS011;11259;52.146;12.844;2023-06-10T10:31:34;3.60;;;2.72;;
22186;SDS011;11259;52.146;12.844;2023-06-10T10:34:00;2.58;;;2.38;;
22186;SDS011;11259;52.146;12.844;2023-06-10T10:36:29;3.40;;;3.10;;
22186;SDS011;11259;52.146;12.844;2023-06-10T10:38:54;4.85;;;3.20;;
22186;SDS011;11259;52.146;12.844;2023-06-10T10:41:21;2.65;;;2.45;;
22186;SDS011;11259;52.146;12.844;2023-06-10T10:43:48;2.53;;;2.33;;
22186;SDS011;11259;52.146;12.844;2023-06-10T10:46:15;3.10;;;2.65;;
22186;SDS011;11259;52.146;12.844;2023-06-10T10:48:41;3.35;;;2.60;;
22186;SDS011;11259;52.146;12.844;2023-06-10T10:51:07;4.68;;;3.05;;
22186;SDS011;11259;52.146;12.844;2023-06-10T10:53:32;4.00;;;2.53;;
22186;SDS011;11259;52.146;12.844;2023-06-10T10:55:58;4.68;;;3.08;;
22186;SDS011;11259;52.146;12.844;2023-06-10T10:58:24;2.53;;;2.33;;
22186;SDS011;11259;52.146;12.844;2023-06-10T11:00:51;4.35;;;3.30;;
22186;SDS011;11259;52.146;12.844;2023-06-10T11:03:16;3.33;;;2.70;;
22186;SDS011;11259;52.146;12.844;2023-06-10T11:05:42;2.88;;;2.58;;
22186;SDS011;11259;52.146;12.844;2023-06-10T11:08:08;3.33;;;2.90;;
22186;SDS011;11259;52.146;12.844;2023-06-10T11:10:34;2.95;;;2.47;;
22186;SDS011;11259;52.146;12.844;2023-06-10T11:13:01;3.08;;;2.78;;
22186;SDS011;11259;52.146;12.844;2023-06-10T11:15:31;4.13;;;2.65;;
22186;SDS011;11259;52.146;12.844;2023-06-10T11:18:13;3.72;;;2.33;;
22186;SDS011;11259;52.146;12.844;2023-06-10T11:20:50;3.67;;;2.60;;
22186;SDS011;11259;52.146;12.844;2023-06-10T11:23:30;5.50;;;2.83;;
22186;SDS011;11259;52.146;12.844;2023-06-10T11:26:13;2.72;;;2.38;;
22186;SDS011;11259;52.146;12.844;2023-06-10T11:28:40;2.40;;;2.15;;
22186;SDS011;11259;52.146;12.844;2023-06-10T11:31:05;3.28;;;2.47;;
22186;SDS011;11259;52.146;12.844;2023-06-10T11:33:32;3.50;;;3.03;;
22186;SDS011;11259;52.146;12.844;2023-06-10T11:35:58;6.15;;;3.05;;
22186;SDS011;11259;52.146;12.844;2023-06-10T11:38:23;4.10;;;2.85;;
22186;SDS011;11259;52.146;12.844;2023-06-10T11:40:49;3.38;;;2.83;;
22186;SDS011;11259;52.146;12.844;2023-06-10T11:43:14;4.60;;;2.80;;
22186;SDS011;11259;52.146;12.844;2023-06-10T11:45:40;3.10;;;2.30;;
22186;SDS011;11259;52.146;12.844;2023-06-10T11:48:06;3.22;;;2.85;;
22186;SDS011;11259;52.146;12.844;2023-06-10T11:50:33;2.95;;;2.65;;
22186;SDS011;11259;52.146;12.844;2023-06-10T11:52:58;2.92;;;2.53;;
22186;SDS011;11259;52.146;12.844;2023-06-10T11:55:24;3.67;;;2.60;;
22186;SDS011;11259;52.146;12.844;2023-06-10T11:57:50;3.10;;;2.80;;
22186;SDS011;11259;52.146;12.844;2023-06-10T12:00:16;4.10;;;2.47;;
22186;SDS011;11259;52.146;12.844;2023-06-10T12:02:41;2.72;;;2.53;;
22186;SDS011;11259;52.146;12.844;2023-06-10T12:05:10;3.13;;;2.25;;
22186;SDS011;11259;52.146;12.844;2023-06-10T12:07:37;3.05;;;2.28;;
22186;SDS011;11259;52.146;12.844;2023-06-10T12:10:03;2.60;;;2.40;;
22186;SDS011;11259;52.146;12.844;2023-06-10T12:12:29;2.47;;;2.22;;
22186;SDS011;11259;52.146;12.844;2023-06-10T12:14:54;4.82;;;3.10;;
22186;SDS011;11259;52.146;12.844;2023-06-10T12:17:21;5.18;;;2.92;;
22186;SDS011;11259;52.146;12.844;2023-06-10T12:19:46;3.28;;;2.88;;
22186;SDS011;11259;52.146;12.844;2023-06-10T12:22:12;6.85;;;3.20;;
22186;SDS011;11259;52.146;12.844;2023-06-10T12:24:44;4.32;;;2.85;;
22186;SDS011;11259;52.146;12.844;2023-06-10T12:27:10;3.05;;;2.75;;
22186;SDS011;11259;52.146;12.844;2023-06-10T12:29:36;3.55;;;2.65;;
22186;SDS011;11259;52.146;12.844;2023-06-10T12:32:02;3.65;;;2.63;;
22186;SDS011;11259;52.146;12.844;2023-06-10T12:34:29;5.13;;;2.58;;
22186;SDS011;11259;52.146;12.844;2023-06-10T12:36:55;3.75;;;2.65;;
22186;SDS011;11259;52.146;12.844;2023-06-10T12:39:21;3.45;;;3.03;;
22186;SDS011;11259;52.146;12.844;2023-06-10T12:41:48;3.92;;;3.08;;
22186;SDS011;11259;52.146;12.844;2023-06-10T12:44:13;4.00;;;2.95;;
22186;SDS011;11259;52.146;12.844;2023-06-10T12:46:39;7.32;;;2.80;;
22186;SDS011;11259;52.146;12.844;2023-06-10T12:49:04;4.13;;;3.17;;
22186;SDS011;11259;52.146;12.844;2023-06-10T12:51:29;4.20;;;3.03;;
22186;SDS011;11259;52.146;12.844;2023-06-10T12:53:55;4.10;;;3.10;;
22186;SDS011;11259;52.146;12.844;2023-06-10T12:56:20;4.88;;;3.22;;
22186;SDS011;11259;52.146;12.844;2023-06-10T12:58:47;3.88;;;2.95;;
22186;SDS011;11259;52.146;12.844;2023-06-10T13:01:12;3.67;;;3.05;;
22186;SDS011;11259;52.146;12.844;2023-06-10T13:03:37;3.47;;;2.80;;
22186;SDS011;11259;52.146;12.844;2023-06-10T13:06:03;2.95;;;2.60;;
22186;SDS011;11259;52.146;12.844;2023-06-10T13:08:28;3.40;;;3.03;;
22186;SDS011;11259;52.146;12.844;2023-06-10T13:10:54;3.53;;;2.72;;
22186;SDS011;11259;52.146;12.844;2023-06-10T13:13:19;4.20;;;2.72;;
22186;SDS011;11259;52.146;12.844;2023-06-10T13:15:46;3.42;;;3.10;;
22186;SDS011;11259;52.146;12.844;2023-06-10T13:18:11;3.42;;;2.63;;
22186;SDS011;11259;52.146;12.844;2023-06-10T13:20:36;3.10;;;2.70;;
22186;SDS011;11259;52.146;12.844;2023-06-10T13:23:02;3.47;;;2.70;;
22186;SDS011;11259;52.146;12.844;2023-06-10T13:25:27;3.83;;;2.97;;
22186;SDS011;11259;52.146;12.844;2023-06-10T13:27:52;4.85;;;2.58;;
22186;SDS011;11259;52.146;12.844;2023-06-10T13:30:18;8.32;;;3.05;;
22186;SDS011;11259;52.146;12.844;2023-06-10T13:32:44;3.88;;;2.65;;
22186;SDS011;11259;52.146;12.844;2023-06-10T13:35:10;3.75;;;2.83;;
22186;SDS011;11259;52.146;12.844;2023-06-10T13:37:35;2.35;;;2.15;;
22186;SDS011;11259;52.146;12.844;2023-06-10T13:40:00;3.13;;;2.53;;
22186;SDS011;11259;52.146;12.844;2023-06-10T13:42:26;4.95;;;2.92;;
22186;SDS011;11259;52.146;12.844;2023-06-10T13:44:51;4.25;;;2.40;;
22186;SDS011;11259;52.146;12.844;2023-06-10T13:47:16;4.25;;;2.72;;
22186;SDS011;11259;52.146;12.844;2023-06-10T13:49:43;3.53;;;2.35;;
22186;SDS011;11259;52.146;12.844;2023-06-10T13:52:08;3.85;;;2.72;;
22186;SDS011;11259;52.146;12.844;2023-06-10T13:54:34;2.88;;;2.50;;
22186;SDS011;11259;52.146;12.844;2023-06-10T13:56:59;3.53;;;2.47;;
22186;SDS011;11259;52.146;12.844;2023-06-10T13:59:24;4.28;;;2.70;;
22186;SDS011;11259;52.146;12.844;2023-06-10T14:01:50;3.42;;;2.75;;
22186;SDS011;11259;52.146;12.844;2023-06-10T14:04:15;3.78;;;2.60;;
22186;SDS011;11259;52.146;12.844;2023-06-10T14:06:42;3.22;;;2.72;;
22186;SDS011;11259;52.146;12.844;2023-06-10T14:09:07;3.38;;;2.85;;
22186;SDS011;11259;52.146;12.844;2023-06-10T14:11:32;3.83;;;2.88;;
22186;SDS011;11259;52.146;12.844;2023-06-10T14:13:58;3.47;;;2.88;;
22186;SDS011;11259;52.146;12.844;2023-06-10T14:16:23;2.30;;;2.10;;
22186;SDS011;11259;52.146;12.844;2023-06-10T14:18:49;3.10;;;2.75;;
22186;SDS011;11259;52.146;12.844;2023-06-10T14:21:14;3.10;;;2.30;;
22186;SDS011;11259;52.146;12.844;2023-06-10T14:23:41;2.80;;;2.42;;
22186;SDS011;11259;52.146;12.844;2023-06-10T14:26:06;3.00;;;2.70;;
22186;SDS011;11259;52.146;12.844;2023-06-10T14:28:31;2.95;;;2.40;;